createdAt,value
2018-04-15T00:02:20.470Z,95741.37
2018-04-15T00:04:47.016Z,95736.69
2018-04-15T00:07:13.500Z,95727.08
2018-04-15T00:09:39.948Z,95721.61
2018-04-15T00:12:06.415Z,95723.13
2018-04-15T00:14:32.807Z,95729.44
2018-04-15T00:16:59.253Z,95726.02
2018-04-15T00:19:25.667Z,95725.87
2018-04-15T00:21:52.149Z,95727.20
2018-04-15T00:24:18.627Z,95727.41
2018-04-15T00:26:45.065Z,95719.87
2018-04-15T00:29:11.534Z,95726.19
2018-04-15T00:31:37.983Z,95721.50
2018-04-15T00:34:04.568Z,95720.79
2018-04-15T00:36:31.001Z,95725.47
2018-04-15T00:38:57.448Z,95712.84
2018-04-15T00:41:23.976Z,95716.23
2018-04-15T00:43:50.443Z,95711.73
2018-04-15T00:46:16.918Z,95709.81
2018-04-15T00:48:43.397Z,95708.49
2018-04-15T00:51:09.943Z,95713.64
2018-04-15T00:53:48.553Z,95709.61
2018-04-15T00:56:14.999Z,95711.45
2018-04-15T00:58:41.425Z,95718.48
2018-04-15T01:01:07.865Z,95723.34
2018-04-15T01:03:34.371Z,95722.84
2018-04-15T01:06:00.877Z,95720.09
2018-04-15T01:08:27.289Z,95726.72
2018-04-15T01:10:53.852Z,95735.67
2018-04-15T01:13:20.475Z,95731.30
2018-04-15T01:15:46.936Z,95748.29
2018-04-15T01:18:13.493Z,95742.02
2018-04-15T01:20:39.992Z,95744.12
2018-04-15T01:23:06.545Z,95737.09
2018-04-15T01:25:32.976Z,95738.03
2018-04-15T01:27:59.458Z,95735.03
2018-04-15T01:30:25.978Z,95727.66
2018-04-15T01:32:52.423Z,95732.39
2018-04-15T01:35:18.844Z,95740.34
2018-04-15T01:37:45.296Z,95743.22
2018-04-15T01:40:11.728Z,95737.03
2018-04-15T01:42:38.336Z,95741.26
2018-04-15T01:45:04.808Z,95731.48
2018-04-15T01:47:31.636Z,95739.20
2018-04-15T01:49:58.032Z,95740.58
2018-04-15T01:52:24.447Z,95737.88
2018-04-15T01:54:50.977Z,95737.42
2018-04-15T01:57:17.435Z,95731.46
2018-04-15T01:59:43.936Z,95725.89
2018-04-15T02:02:10.406Z,95722.53
2018-04-15T02:04:36.929Z,95722.60
2018-04-15T02:07:03.429Z,95724.95
2018-04-15T02:09:29.912Z,95728.38
2018-04-15T02:11:56.415Z,95722.67
2018-04-15T02:14:22.793Z,95719.65
2018-04-15T02:16:49.300Z,95723.08
2018-04-15T02:19:15.753Z,95724.45
2018-04-15T02:21:42.355Z,95724.12
2018-04-15T02:24:08.857Z,95723.52
2018-04-15T02:26:35.295Z,95721.50
2018-04-15T02:29:01.745Z,95712.27
2018-04-15T02:31:28.221Z,95714.41
2018-04-15T02:33:54.682Z,95713.41
2018-04-15T02:36:21.194Z,95721.71
2018-04-15T02:38:47.769Z,95714.70
2018-04-15T02:41:14.240Z,95713.69
2018-04-15T02:43:40.661Z,95717.09
2018-04-15T02:46:07.193Z,95719.93
2018-04-15T02:48:33.624Z,95715.98
2018-04-15T02:51:00.100Z,95717.19
2018-04-15T02:53:26.554Z,95716.64
2018-04-15T02:55:53.051Z,95713.60
2018-04-15T02:58:19.552Z,95722.30
2018-04-15T03:00:45.961Z,95726.67
2018-04-15T03:03:12.372Z,95734.06
2018-04-15T03:05:38.860Z,95726.75
2018-04-15T03:08:05.357Z,95727.70
2018-04-15T03:10:31.952Z,95727.90
2018-04-15T03:12:58.512Z,95733.25
2018-04-15T03:15:24.961Z,95732.91
2018-04-15T03:17:51.324Z,95728.16
2018-04-15T03:20:17.707Z,95736.48
2018-04-15T03:22:44.280Z,95736.58
2018-04-15T03:25:10.837Z,95738.44
2018-04-15T03:27:37.300Z,95744.23
2018-04-15T03:30:03.844Z,95751.28
2018-04-15T03:32:30.324Z,95742.77
2018-04-15T03:34:56.864Z,95744.05
2018-04-15T03:37:23.416Z,95748.55
2018-04-15T03:39:49.812Z,95750.41
2018-04-15T03:42:16.289Z,95754.08
2018-04-15T03:44:42.750Z,95754.02
2018-04-15T03:47:09.322Z,95757.06
2018-04-15T03:49:35.863Z,95763.25
2018-04-15T03:52:02.288Z,95762.03
2018-04-15T03:54:28.737Z,95766.52
2018-04-15T03:56:55.153Z,95760.33
2018-04-15T03:59:21.607Z,95763.90
2018-04-15T04:01:47.954Z,95765.81
2018-04-15T04:04:14.452Z,95763.77
2018-04-15T04:06:40.929Z,95768.86
2018-04-15T04:09:07.375Z,95768.33
2018-04-15T04:11:33.903Z,95780.34
2018-04-15T04:14:00.390Z,95785.91
2018-04-15T04:16:26.873Z,95794.61
2018-04-15T04:19:05.559Z,95794.83
2018-04-15T04:21:44.001Z,95794.08
2018-04-15T04:24:22.549Z,95795.75
2018-04-15T04:26:49.022Z,95788.59
2018-04-15T04:29:15.438Z,95786.17
2018-04-15T04:31:41.880Z,95789.63
2018-04-15T04:34:08.270Z,95783.35
2018-04-15T04:36:34.711Z,95777.05
2018-04-15T04:39:01.248Z,95778.77
2018-04-15T04:41:27.668Z,95782.80
2018-04-15T04:43:54.167Z,95788.92
2018-04-15T04:46:20.680Z,95785.03
2018-04-15T04:48:47.204Z,95786.34
2018-04-15T04:51:13.781Z,95786.50
2018-04-15T04:53:40.184Z,95784.78
2018-04-15T04:56:06.589Z,95789.77
2018-04-15T04:58:32.977Z,95788.08
2018-04-15T05:00:59.405Z,95786.82
2018-04-15T05:03:25.842Z,95792.79
2018-04-15T05:05:52.247Z,95794.52
2018-04-15T05:08:18.691Z,95792.88
2018-04-15T05:10:45.140Z,95794.92
2018-04-15T05:13:11.684Z,95793.80
2018-04-15T05:15:38.212Z,95799.35
2018-04-15T05:18:04.744Z,95802.45
2018-04-15T05:20:31.223Z,95800.13
2018-04-15T05:22:57.695Z,95802.98
2018-04-15T05:25:24.113Z,95809.25
2018-04-15T05:27:50.593Z,95809.66
2018-04-15T05:30:17.076Z,95819.72
2018-04-15T05:32:43.502Z,95810.29
2018-04-15T05:35:16.928Z,95801.45
2018-04-15T05:37:43.420Z,95800.34
2018-04-15T05:40:09.917Z,95809.74
2018-04-15T05:42:36.424Z,95805.41
2018-04-15T05:45:02.954Z,95813.70
2018-04-15T05:47:29.360Z,95813.27
2018-04-15T05:49:55.979Z,95810.67
2018-04-15T05:52:22.450Z,95807.71
2018-04-15T05:54:48.965Z,95805.72
2018-04-15T05:57:15.556Z,95816.31
2018-04-15T05:59:42.009Z,95816.59
2018-04-15T06:02:08.560Z,95821.37
2018-04-15T06:04:34.961Z,95822.17
2018-04-15T06:07:01.536Z,95824.59
2018-04-15T06:09:28.001Z,95828.55
2018-04-15T06:11:54.381Z,95828.38
2018-04-15T06:14:20.805Z,95826.19
2018-04-15T06:16:47.315Z,95826.04
2018-04-15T06:19:13.889Z,95831.33
2018-04-15T06:21:40.407Z,95830.09
2018-04-15T06:24:06.796Z,95828.05
2018-04-15T06:26:33.269Z,95831.48
2018-04-15T06:28:59.785Z,95836.67
2018-04-15T06:31:26.279Z,95836.20
2018-04-15T06:33:52.788Z,95843.14
2018-04-15T06:36:19.272Z,95835.50
2018-04-15T06:38:45.747Z,95836.49
2018-04-15T06:41:12.184Z,95833.06
2018-04-15T06:43:38.673Z,95826.94
2018-04-15T06:46:05.504Z,95826.07
2018-04-15T06:48:31.959Z,95835.30
2018-04-15T06:50:58.512Z,95835.79
2018-04-15T06:53:25.044Z,95835.66
2018-04-15T06:55:51.505Z,95847.31
2018-04-15T06:58:17.957Z,95848.72
2018-04-15T07:00:44.440Z,95859.56
2018-04-15T07:03:10.854Z,95856.77
2018-04-15T07:05:37.329Z,95850.20
2018-04-15T07:08:03.927Z,95856.04
2018-04-15T07:10:30.412Z,95843.98
2018-04-15T07:12:56.848Z,95839.90
2018-04-15T07:15:23.438Z,95853.91
2018-04-15T07:17:56.751Z,95847.08
2018-04-15T07:20:23.221Z,95849.92
2018-04-15T07:22:49.681Z,95850.07
2018-04-15T07:25:16.216Z,95845.41
2018-04-15T07:27:42.644Z,95844.84
2018-04-15T07:30:09.144Z,95848.61
2018-04-15T07:32:36.393Z,95837.34
2018-04-15T07:35:03.144Z,95833.67
2018-04-15T07:37:29.851Z,95834.97
2018-04-15T07:39:56.484Z,95837.42
2018-04-15T07:42:22.966Z,95842.48
2018-04-15T07:44:49.513Z,95850.98
2018-04-15T07:47:16.133Z,95840.75
2018-04-15T07:49:42.764Z,95838.33
2018-04-15T07:52:09.476Z,95838.09
2018-04-15T07:54:35.981Z,95837.98
2018-04-15T07:57:02.539Z,95835.12
2018-04-15T07:59:29.141Z,95825.64
2018-04-15T08:01:55.682Z,95821.82
2018-04-15T08:04:22.285Z,95827.05
2018-04-15T08:06:49.137Z,95823.20
2018-04-15T08:09:16.886Z,95822.88
2018-04-15T08:11:43.483Z,95819.24
2018-04-15T08:14:10.099Z,95819.53
2018-04-15T08:16:36.562Z,95825.59
2018-04-15T08:19:03.211Z,95808.36
2018-04-15T08:21:29.687Z,95801.92
2018-04-15T08:23:56.341Z,95803.47
2018-04-15T08:26:22.907Z,95805.48
2018-04-15T08:28:49.588Z,95806.51
2018-04-15T08:31:16.123Z,95793.27
2018-04-15T08:33:42.830Z,95794.31
2018-04-15T08:36:09.319Z,95790.25
2018-04-15T08:38:35.851Z,95798.84
2018-04-15T08:41:02.317Z,95800.38
2018-04-15T08:43:28.872Z,95794.88
2018-04-15T08:45:55.830Z,95787.17
2018-04-15T08:48:22.333Z,95789.55
2018-04-15T08:50:48.831Z,95789.98
2018-04-15T08:53:15.432Z,95789.05
2018-04-15T08:55:42.035Z,95784.26
2018-04-15T08:58:08.525Z,95787.75
2018-04-15T09:00:35.274Z,95774.45
2018-04-15T09:03:01.737Z,95755.66
2018-04-15T09:05:28.796Z,95762.13
2018-04-15T09:07:56.152Z,95758.02
2018-04-15T09:10:22.668Z,95758.34
2018-04-15T09:12:49.379Z,95752.62
2018-04-15T09:15:16.182Z,95742.91
2018-04-15T09:17:42.880Z,95733.63
2018-04-15T09:20:09.322Z,95724.73
2018-04-15T09:22:35.760Z,95744.20
2018-04-15T09:25:02.417Z,95730.32
2018-04-15T09:27:28.977Z,95735.38
2018-04-15T09:29:55.532Z,95724.06
2018-04-15T09:32:22.000Z,95718.34
2018-04-15T09:34:48.946Z,95722.81
2018-04-15T09:37:15.761Z,95743.59
2018-04-15T09:39:42.422Z,95711.91
2018-04-15T09:42:09.116Z,95715.50
2018-04-15T09:44:35.568Z,95711.75
2018-04-15T09:47:02.013Z,95708.77
2018-04-15T09:49:28.520Z,95710.22
2018-04-15T09:51:55.045Z,95717.16
2018-04-15T09:54:21.676Z,95705.70
2018-04-15T09:56:48.097Z,95709.02
2018-04-15T09:59:14.706Z,95705.30
2018-04-15T10:01:42.244Z,95709.48
2018-04-15T10:04:08.789Z,95711.14
2018-04-15T10:06:35.428Z,95703.38
2018-04-15T10:09:02.072Z,95696.59
2018-04-15T10:11:28.770Z,95696.11
2018-04-15T10:13:55.457Z,95703.65
2018-04-15T10:16:22.240Z,95704.73
2018-04-15T10:18:48.900Z,95684.47
2018-04-15T10:21:15.512Z,95686.33
2018-04-15T10:23:42.298Z,95688.94
2018-04-15T10:26:08.736Z,95693.22
2018-04-15T10:28:35.200Z,95699.58
2018-04-15T10:31:01.724Z,95692.87
2018-04-15T10:33:28.261Z,95696.33
2018-04-15T10:35:54.872Z,95684.17
2018-04-15T10:38:21.856Z,95691.22
2018-04-15T10:40:49.955Z,95681.55
2018-04-15T10:43:16.576Z,95679.22
2018-04-15T10:45:43.181Z,95681.27
2018-04-15T10:48:09.747Z,95684.13
2018-04-15T10:50:42.516Z,95669.28
2018-04-15T10:53:10.458Z,95676.33
2018-04-15T10:55:37.033Z,95665.72
2018-04-15T10:58:03.723Z,95680.84
2018-04-15T11:00:30.277Z,95674.52
2018-04-15T11:02:56.918Z,95676.06
2018-04-15T11:05:23.501Z,95680.45
2018-04-15T11:07:49.978Z,95675.34
2018-04-15T11:10:16.428Z,95682.38
2018-04-15T11:12:42.882Z,95679.12
2018-04-15T11:15:09.436Z,95683.81
2018-04-15T11:17:35.969Z,95684.31
2018-04-15T11:20:02.573Z,95698.62
2018-04-15T11:22:28.960Z,95683.62
2018-04-15T11:24:55.472Z,95683.30
2018-04-15T11:27:21.982Z,95681.56
2018-04-15T11:29:48.527Z,95681.67
2018-04-15T11:32:15.092Z,95695.04
2018-04-15T11:34:41.638Z,95686.55
2018-04-15T11:37:08.170Z,95696.77
2018-04-15T11:39:34.660Z,95684.11
2018-04-15T11:42:01.114Z,95690.84
2018-04-15T11:44:27.745Z,95693.48
2018-04-15T11:46:54.391Z,95701.97
2018-04-15T11:49:20.936Z,95692.75
2018-04-15T11:51:47.412Z,95692.28
2018-04-15T11:54:14.049Z,95692.34
2018-04-15T11:56:40.618Z,95687.17
2018-04-15T11:59:07.291Z,95690.55
2018-04-15T12:01:33.849Z,95675.32
2018-04-15T12:04:00.281Z,95690.22
2018-04-15T12:06:26.873Z,95667.68
2018-04-15T12:08:53.365Z,95671.14
2018-04-15T12:11:19.909Z,95670.03
2018-04-15T12:13:46.940Z,95680.04
2018-04-15T12:16:13.380Z,95669.28
2018-04-15T12:18:39.956Z,95667.78
2018-04-15T12:21:06.440Z,95679.00
2018-04-15T12:23:33.048Z,95671.85
2018-04-15T12:25:59.539Z,95665.66
2018-04-15T12:28:26.006Z,95672.69
2018-04-15T12:30:52.592Z,95682.45
2018-04-15T12:33:19.065Z,95680.91
2018-04-15T12:35:45.646Z,95692.20
2018-04-15T12:38:12.264Z,95689.91
2018-04-15T12:40:38.884Z,95685.48
2018-04-15T12:43:05.321Z,95679.42
2018-04-15T12:45:31.836Z,95669.71
2018-04-15T12:47:58.482Z,95662.75
2018-04-15T12:50:25.132Z,95646.08
2018-04-15T12:52:51.648Z,95644.95
2018-04-15T12:55:18.313Z,95643.03
2018-04-15T12:57:44.806Z,95639.44
2018-04-15T13:00:11.513Z,95642.27
2018-04-15T13:02:38.022Z,95651.08
2018-04-15T13:05:04.696Z,95661.05
2018-04-15T13:07:31.415Z,95656.39
2018-04-15T13:09:58.048Z,95664.72
2018-04-15T13:12:24.498Z,95665.22
2018-04-15T13:14:52.210Z,95660.73
2018-04-15T13:17:18.809Z,95659.28
2018-04-15T13:19:45.388Z,95661.56
2018-04-15T13:22:11.824Z,95673.78
2018-04-15T13:24:38.274Z,95663.15
2018-04-15T13:27:04.852Z,95663.70
2018-04-15T13:29:31.300Z,95665.73
2018-04-15T13:31:57.839Z,95654.38
2018-04-15T13:34:24.607Z,95657.72
2018-04-15T13:36:51.165Z,95647.23
2018-04-15T13:39:17.705Z,95645.54
2018-04-15T13:41:44.222Z,95650.95
2018-04-15T13:44:10.841Z,95648.70
2018-04-15T13:46:37.281Z,95643.75
2018-04-15T13:49:03.869Z,95643.89
2018-04-15T13:51:30.316Z,95632.45
2018-04-15T13:53:56.691Z,95645.62
2018-04-15T13:56:23.100Z,95632.37
2018-04-15T13:58:49.712Z,95637.67
2018-04-15T14:01:16.267Z,95635.23
2018-04-15T14:03:42.673Z,95636.24
2018-04-15T14:06:09.678Z,95633.37
2018-04-15T14:08:36.284Z,95638.77
2018-04-15T14:11:02.892Z,95640.22
2018-04-15T14:13:29.435Z,95639.39
2018-04-15T14:15:55.891Z,95641.42
2018-04-15T14:18:22.342Z,95635.75
2018-04-15T14:20:48.900Z,95631.31
2018-04-15T14:23:15.513Z,95637.60
2018-04-15T14:25:42.092Z,95627.93
2018-04-15T14:28:08.845Z,95630.78
2018-04-15T14:30:35.198Z,95623.14
2018-04-15T14:33:01.567Z,95626.63
2018-04-15T14:35:27.970Z,95618.25
2018-04-15T14:37:54.605Z,95622.03
2018-04-15T14:40:21.350Z,95621.30
2018-04-15T14:42:47.757Z,95628.55
2018-04-15T14:45:14.211Z,95631.38
2018-04-15T14:47:40.761Z,95628.73
2018-04-15T14:50:07.258Z,95619.87
2018-04-15T14:52:33.728Z,95625.37
2018-04-15T14:55:00.804Z,95618.03
2018-04-15T14:57:27.407Z,95622.72
2018-04-15T14:59:53.905Z,95622.93
2018-04-15T15:02:20.387Z,95607.43
2018-04-15T15:04:50.174Z,95615.55
2018-04-15T15:07:16.662Z,95612.53
2018-04-15T15:09:43.076Z,95597.09
2018-04-15T15:12:09.648Z,95603.10
2018-04-15T15:14:36.137Z,95593.29
2018-04-15T15:17:02.748Z,95602.31
2018-04-15T15:19:29.425Z,95599.28
2018-04-15T15:21:55.839Z,95588.44
2018-04-15T15:24:22.220Z,95598.52
2018-04-15T15:26:48.921Z,95600.22
2018-04-15T15:29:15.425Z,95602.54
2018-04-15T15:31:41.984Z,95582.36
2018-04-15T15:34:08.948Z,95572.07
2018-04-15T15:36:35.523Z,95566.13
2018-04-15T15:39:01.878Z,95562.60
2018-04-15T15:41:28.205Z,95549.80
2018-04-15T15:43:54.577Z,95542.58
2018-04-15T15:46:21.385Z,95534.95
2018-04-15T15:48:47.855Z,95543.28
2018-04-15T15:51:14.456Z,95533.11
2018-04-15T15:53:41.130Z,95526.27
2018-04-15T15:56:07.632Z,95534.34
2018-04-15T15:58:34.000Z,95534.63
2018-04-15T16:01:00.520Z,95524.30
2018-04-15T16:03:26.958Z,95522.48
2018-04-15T16:05:54.218Z,95520.56
2018-04-15T16:08:20.742Z,95517.06
2018-04-15T16:10:47.233Z,95524.97
2018-04-15T16:13:13.634Z,95520.48
2018-04-15T16:15:40.358Z,95518.47
2018-04-15T16:18:06.860Z,95514.88
2018-04-15T16:20:33.296Z,95506.63
2018-04-15T16:22:59.671Z,95512.97
2018-04-15T16:25:26.040Z,95507.85
2018-04-15T16:27:52.408Z,95521.81
2018-04-15T16:30:18.811Z,95517.28
2018-04-15T16:32:45.966Z,95521.19
2018-04-15T16:35:12.664Z,95503.06
2018-04-15T16:37:39.036Z,95504.86
2018-04-15T16:40:05.403Z,95506.31
2018-04-15T16:42:31.876Z,95507.95
2018-04-15T16:44:58.369Z,95518.25
2018-04-15T16:47:24.769Z,95518.17
2018-04-15T16:49:51.271Z,95511.73
2018-04-15T16:52:17.616Z,95522.55
2018-04-15T16:54:43.965Z,95515.50
2018-04-15T16:57:10.460Z,95512.37
2018-04-15T16:59:36.881Z,95513.03
2018-04-15T17:02:03.497Z,95507.03
2018-04-15T17:04:30.036Z,95496.63
2018-04-15T17:06:56.742Z,95503.27
2018-04-15T17:09:23.294Z,95515.07
2018-04-15T17:11:49.858Z,95501.75
2018-04-15T17:14:16.284Z,95510.91
2018-04-15T17:16:42.820Z,95524.12
2018-04-15T17:19:09.309Z,95523.40
2018-04-15T17:21:36.518Z,95521.06
2018-04-15T17:24:03.016Z,95520.69
2018-04-15T17:26:29.417Z,95520.20
2018-04-15T17:28:55.876Z,95527.63
2018-04-15T17:31:22.321Z,95537.08
2018-04-15T17:33:49.022Z,95528.59
2018-04-15T17:36:15.691Z,95538.75
2018-04-15T17:38:42.055Z,95534.17
2018-04-15T17:41:08.505Z,95530.67
2018-04-15T17:43:34.964Z,95532.50
2018-04-15T17:46:01.668Z,95540.78
2018-04-15T17:48:28.101Z,95547.65
2018-04-15T17:50:54.436Z,95549.98
2018-04-15T17:53:20.845Z,95558.04
2018-04-15T17:55:47.249Z,95555.16
2018-04-15T17:58:13.766Z,95570.86
2018-04-15T18:00:40.376Z,95570.45
2018-04-15T18:03:07.107Z,95575.63
2018-04-15T18:05:33.503Z,95571.36
2018-04-15T18:08:00.049Z,95574.00
2018-04-15T18:10:26.384Z,95584.15
2018-04-15T18:12:52.838Z,95582.66
2018-04-15T18:15:19.255Z,95594.83
2018-04-15T18:17:45.823Z,95580.40
2018-04-15T18:20:12.398Z,95582.89
2018-04-15T18:22:38.932Z,95584.87
2018-04-15T18:25:05.397Z,95584.76
2018-04-15T18:27:31.836Z,95580.41
2018-04-15T18:29:58.224Z,95579.44
2018-04-15T18:32:24.698Z,95571.36
2018-04-15T18:34:51.161Z,95568.75
2018-04-15T18:37:17.657Z,95574.10
2018-04-15T18:39:44.204Z,95566.69
2018-04-15T18:42:10.804Z,95552.83
2018-04-15T18:44:37.325Z,95561.08
2018-04-15T18:47:04.744Z,95569.57
2018-04-15T18:49:36.044Z,95570.67
2018-04-15T18:52:03.781Z,95574.06
2018-04-15T18:54:31.109Z,95572.13
2018-04-15T18:56:59.864Z,95570.97
2018-04-15T19:12:52.195Z,95564.18
2018-04-15T19:15:18.788Z,95576.31
2018-04-15T19:17:45.302Z,95574.23
2018-04-15T19:20:11.775Z,95576.25
2018-04-15T19:22:42.847Z,95586.25
2018-04-15T19:25:09.356Z,95584.38
2018-04-15T19:27:35.932Z,95575.34
2018-04-15T19:30:06.553Z,95575.81
2018-04-15T19:35:56.425Z,95567.52
2018-04-15T19:38:23.082Z,95574.38
2018-04-15T19:40:49.526Z,95573.65
2018-04-15T19:43:15.917Z,95575.52
2018-04-15T19:45:42.453Z,95588.68
2018-04-15T19:48:09.284Z,95581.87
2018-04-15T19:53:20.076Z,95581.84
2018-04-15T19:55:47.486Z,95589.41
2018-04-15T20:04:47.531Z,95584.98
2018-04-15T20:09:47.710Z,95581.45
2018-04-15T20:12:14.322Z,95578.34
2018-04-15T20:14:40.828Z,95591.26
2018-04-15T20:17:07.265Z,95581.34
2018-04-15T20:19:33.783Z,95575.06
2018-04-15T20:22:00.254Z,95571.52
2018-04-15T20:24:27.125Z,95577.74
2018-04-15T20:26:53.658Z,95579.66
2018-04-15T20:29:20.197Z,95577.51
2018-04-15T20:31:46.895Z,95585.93
2018-04-15T20:34:13.382Z,95586.20
2018-04-15T20:36:39.847Z,95586.22
2018-04-15T20:39:09.272Z,95587.43
2018-04-15T20:44:22.949Z,95588.84
2018-04-15T20:46:49.827Z,95589.58
2018-04-15T20:49:16.496Z,95582.47
2018-04-15T20:51:43.999Z,95596.48
2018-04-15T20:54:12.803Z,95603.27
2018-04-15T20:59:49.751Z,95616.34
2018-04-15T21:02:16.144Z,95616.12
2018-04-15T21:04:42.746Z,95621.90
2018-04-15T21:07:10.249Z,95618.64
2018-04-15T21:09:38.695Z,95609.08
2018-04-15T21:12:05.177Z,95605.75
2018-04-15T21:14:31.604Z,95612.72
2018-04-15T21:16:58.877Z,95613.34
2018-04-15T21:19:25.461Z,95631.91
2018-04-15T21:21:52.041Z,95627.31
2018-04-15T21:24:18.772Z,95629.85
2018-04-15T21:26:45.191Z,95603.13
2018-04-15T21:29:11.709Z,95625.78
2018-04-15T21:31:38.289Z,95623.76
2018-04-15T21:34:05.767Z,95631.27
2018-04-15T21:36:32.548Z,95633.52
2018-04-15T21:39:00.071Z,95629.21
2018-04-15T21:41:27.206Z,95626.06
2018-04-15T21:43:55.048Z,95634.70
2018-04-15T21:46:23.226Z,95638.21
2018-04-15T21:48:50.833Z,95629.06
2018-04-15T21:51:18.514Z,95630.56
2018-04-15T21:53:46.937Z,95624.21
2018-04-15T21:56:15.739Z,95635.08
2018-04-15T21:58:42.339Z,95630.21
2018-04-15T22:01:10.165Z,95625.95
2018-04-15T22:03:43.914Z,95612.75
2018-04-15T22:06:11.837Z,95605.47
2018-04-15T22:08:39.102Z,95611.66
2018-04-15T22:11:06.572Z,95616.89
2018-04-15T22:13:32.979Z,95617.80
2018-04-15T22:16:01.489Z,95615.28
2018-04-15T22:18:29.918Z,95610.98
2018-04-15T22:20:57.694Z,95605.27
2018-04-15T22:23:24.510Z,95605.91
2018-04-15T22:25:51.610Z,95612.02
2018-04-15T22:28:18.380Z,95613.63
2018-04-15T22:30:45.313Z,95599.40
2018-04-15T22:33:12.579Z,95595.45
2018-04-15T22:35:40.239Z,95594.80
2018-04-15T22:38:09.902Z,95586.73
2018-04-15T22:40:37.060Z,95577.70
2018-04-15T22:43:04.033Z,95573.95
2018-04-15T22:45:31.516Z,95564.25
2018-04-15T22:48:04.471Z,95560.05
2018-04-15T22:50:37.056Z,95550.32
2018-04-15T22:53:04.053Z,95558.14
2018-04-15T22:55:31.059Z,95556.95
2018-04-15T22:57:59.060Z,95558.35
2018-04-15T23:00:26.757Z,95553.72
2018-04-15T23:02:54.526Z,95539.33
2018-04-15T23:05:21.649Z,95540.48
2018-04-15T23:07:48.652Z,95536.50
2018-04-15T23:10:15.661Z,95540.83
2018-04-15T23:12:42.404Z,95539.88
2018-04-15T23:15:09.734Z,95536.59
2018-04-15T23:17:37.306Z,95524.59
2018-04-15T23:20:04.627Z,95532.48
2018-04-15T23:22:31.464Z,95528.69
2018-04-15T23:24:59.377Z,95514.38
2018-04-15T23:27:26.807Z,95513.78
2018-04-15T23:29:54.176Z,95512.45
2018-04-15T23:32:21.414Z,95501.14
2018-04-15T23:34:48.657Z,95501.08
2018-04-15T23:37:15.642Z,95494.28
2018-04-15T23:39:42.629Z,95499.33
2018-04-15T23:42:09.392Z,95501.52
2018-04-15T23:44:36.454Z,95495.52
2018-04-15T23:47:03.520Z,95488.36
2018-04-15T23:49:30.130Z,95503.08
2018-04-15T23:52:03.603Z,95499.08
2018-04-15T23:54:31.386Z,95483.91
2018-04-15T23:56:58.654Z,95487.09
2018-04-15T23:59:25.706Z,95484.82
